Time;durP1;ratioP1;P1;durP2;ratioP2;P2;SDS_P1;SDS_P2;PMS_P1;PMS_P2;Temp;Humidity;BMP_temperature;BMP_pressure;BME280_temperature;BME280_humidity;BME280_pressure;Samples;Min_cycle;Max_cycle;Signal;HPM_P1;HPM_P2
2023/05/02 00:00:44;;;;;;;9.73;4.78;;;21.00;55.00;;;;;;5054422;28;20114;-74
2023/05/02 00:03:11;;;;;;;14.48;5.65;;;21.00;54.90;;;;;;5052344;28;20058;-74
2023/05/02 00:05:37;;;;;;;15.18;5.60;;;21.00;55.10;;;;;;5052733;28;20025;-74
2023/05/02 00:08:03;;;;;;;15.15;5.13;;;21.00;55.10;;;;;;5051412;28;20029;-74
2023/05/02 00:10:29;;;;;;;14.13;5.40;;;21.00;55.00;;;;;;5051360;28;20033;-75
2023/05/02 00:12:55;;;;;;;15.48;5.32;;;21.00;55.10;;;;;;5050755;28;20471;-75
2023/05/02 00:15:21;;;;;;;10.63;5.05;;;21.00;55.20;;;;;;5051635;28;20021;-75
2023/05/02 00:17:47;;;;;;;12.60;5.38;;;21.00;55.20;;;;;;5049263;28;20432;-76
2023/05/02 00:20:13;;;;;;;12.02;5.43;;;21.10;55.20;;;;;;5047051;28;20021;-75
2023/05/02 00:22:38;;;;;;;10.55;5.32;;;21.10;55.10;;;;;;5051151;28;20040;-75
2023/05/02 00:25:05;;;;;;;11.93;4.90;;;21.10;55.10;;;;;;5050915;28;20024;-75
2023/05/02 00:27:32;;;;;;;12.23;5.00;;;21.00;55.10;;;;;;5051224;28;20099;-74
2023/05/02 00:29:59;;;;;;;15.30;5.15;;;21.10;55.10;;;;;;5032546;28;20112;-75
2023/05/02 00:32:25;;;;;;;12.20;4.78;;;21.10;55.10;;;;;;5049311;28;20028;-75
2023/05/02 00:34:52;;;;;;;13.80;4.85;;;21.10;54.90;;;;;;5050017;28;20044;-75
2023/05/02 00:37:17;;;;;;;13.00;5.30;;;21.00;54.90;;;;;;5050681;28;20032;-75
2023/05/02 00:39:43;;;;;;;13.38;4.90;;;21.10;55.00;;;;;;5050532;28;20078;-75
2023/05/02 00:42:09;;;;;;;12.07;4.93;;;21.10;54.90;;;;;;5048366;28;20060;-75
2023/05/02 00:44:35;;;;;;;21.80;5.50;;;21.10;55.00;;;;;;5049358;28;20060;-74
2023/05/02 00:47:01;;;;;;;13.57;4.72;;;21.10;54.80;;;;;;5049174;28;20410;-77
2023/05/02 00:49:28;;;;;;;18.40;5.05;;;21.10;54.70;;;;;;5032769;28;20112;-75
2023/05/02 00:51:54;;;;;;;13.40;4.65;;;21.10;54.70;;;;;;5050929;28;20466;-76
2023/05/02 00:54:19;;;;;;;16.65;5.15;;;21.10;54.60;;;;;;5049128;28;20035;-76
2023/05/02 00:56:46;;;;;;;13.70;5.03;;;21.10;54.80;;;;;;5049867;28;20060;-76
2023/05/02 00:59:13;;;;;;;13.52;5.53;;;21.10;54.70;;;;;;5048858;28;20082;-76
2023/05/02 01:02:02;;;;;;;15.13;4.78;;;21.10;54.70;;;;;;5048581;28;20029;-76
2023/05/02 01:04:58;;;;;;;10.30;4.32;;;21.10;54.60;;;;;;5049470;28;20063;-76
2023/05/02 01:07:35;;;;;;;13.15;5.30;;;21.10;54.70;;;;;;5051029;28;20172;-77
2023/05/02 01:10:56;;;;;;;12.95;4.35;;;21.10;54.20;;;;;;5047801;28;20024;-75
2023/05/02 01:13:32;;;;;;;11.45;4.78;;;21.10;54.50;;;;;;4970025;28;20045;-74
2023/05/02 01:15:59;;;;;;;9.27;4.40;;;21.10;54.20;;;;;;5049809;28;20048;-75
2023/05/02 01:18:29;;;;;;;11.75;4.55;;;21.10;54.60;;;;;;5047426;28;20041;-75
2023/05/02 01:21:04;;;;;;;8.45;4.40;;;21.10;54.30;;;;;;5047419;28;20497;-76
2023/05/02 01:23:38;;;;;;;8.75;4.47;;;21.10;54.60;;;;;;5049286;28;20078;-77
2023/05/02 01:26:35;;;;;;;14.98;4.50;;;21.10;55.20;;;;;;5049170;28;20052;-76
2023/05/02 01:29:03;;;;;;;12.20;5.15;;;21.10;54.30;;;;;;5044523;28;20029;-76
2023/05/02 01:31:36;;;;;;;12.70;4.80;;;21.10;53.90;;;;;;5048639;28;20037;-76
2023/05/02 01:34:07;;;;;;;10.57;4.38;;;21.10;54.50;;;;;;5048601;28;20029;-75
2023/05/02 01:36:35;;;;;;;10.85;4.50;;;21.10;54.40;;;;;;5044341;28;20028;-76
2023/05/02 01:39:02;;;;;;;11.73;4.68;;;21.10;54.40;;;;;;5031142;28;20040;-76
2023/05/02 01:41:31;;;;;;;12.40;4.60;;;21.10;54.30;;;;;;5030643;28;20149;-75
2023/05/02 01:43:59;;;;;;;9.63;4.68;;;21.10;54.20;;;;;;5049744;28;20035;-76
2023/05/02 01:46:34;;;;;;;9.93;4.32;;;21.10;54.20;;;;;;5048653;28;20031;-76
2023/05/02 01:49:04;;;;;;;9.60;4.55;;;21.10;53.80;;;;;;5047982;28;20026;-75
2023/05/02 01:51:36;;;;;;;7.68;3.83;;;21.10;54.30;;;;;;5048181;28;20028;-75
2023/05/02 01:54:07;;;;;;;9.50;4.38;;;21.10;54.30;;;;;;5048572;28;20044;-75
2023/05/02 01:56:38;;;;;;;7.05;3.88;;;21.10;53.70;;;;;;5048318;28;20159;-76
2023/05/02 01:59:15;;;;;;;9.05;3.90;;;21.10;54.20;;;;;;5048448;28;20456;-76
2023/05/02 02:01:43;;;;;;;8.45;4.10;;;21.10;53.80;;;;;;5032005;28;20461;-76
2023/05/02 02:04:13;;;;;;;8.68;4.07;;;21.10;54.30;;;;;;5048202;28;20037;-76
2023/05/02 02:06:43;;;;;;;10.02;4.30;;;21.10;54.20;;;;;;5049672;28;20560;-77
2023/05/02 02:09:09;;;;;;;10.30;4.25;;;21.10;54.10;;;;;;5048222;28;20448;-77
2023/05/02 02:11:52;;;;;;;9.90;3.90;;;21.10;54.20;;;;;;5031271;28;20055;-76
2023/05/02 02:14:23;;;;;;;15.52;4.50;;;21.10;54.40;;;;;;5032117;28;20406;-76
2023/05/02 02:16:52;;;;;;;26.95;4.63;;;21.10;54.40;;;;;;5047871;28;20029;-76
2023/05/02 02:19:19;;;;;;;16.73;5.50;;;21.10;54.60;;;;;;5031491;28;20035;-76
2023/05/02 02:21:47;;;;;;;16.55;4.43;;;21.10;54.70;;;;;;5048364;28;20056;-76
2023/05/02 02:24:15;;;;;;;20.48;4.53;;;21.10;54.60;;;;;;5048179;28;20025;-76
2023/05/02 02:26:41;;;;;;;13.07;4.75;;;21.10;54.60;;;;;;5048060;28;20025;-76
2023/05/02 02:29:07;;;;;;;13.40;3.95;;;21.10;54.30;;;;;;5047701;28;20100;-76
2023/05/02 02:31:34;;;;;;;15.55;4.18;;;21.10;54.70;;;;;;5048176;28;20025;-76
2023/05/02 02:34:01;;;;;;;10.05;3.85;;;21.10;54.50;;;;;;5047822;28;20094;-76
2023/05/02 02:36:51;;;;;;;17.67;3.97;;;21.10;54.10;;;;;;5048106;28;20039;-76
2023/05/02 02:39:37;;;;;;;10.73;4.05;;;21.10;54.60;;;;;;5047331;28;20551;-75
2023/05/02 02:42:21;;;;;;;9.70;4.00;;;21.10;54.70;;;;;;5047223;28;20037;-76
2023/05/02 02:45:15;;;;;;;13.77;3.63;;;21.10;54.70;;;;;;5046000;28;20104;-75
2023/05/02 02:47:49;;;;;;;16.30;4.07;;;21.10;54.50;;;;;;5047468;28;20445;-76
2023/05/02 02:50:20;;;;;;;8.27;3.90;;;21.10;54.40;;;;;;5031279;28;20033;-75
2023/05/02 02:52:55;;;;;;;14.82;3.92;;;21.00;53.80;;;;;;5049208;28;20037;-75
2023/05/02 02:55:36;;;;;;;10.35;4.15;;;21.00;54.40;;;;;;5051250;28;20179;-75
2023/05/02 02:58:33;;;;;;;12.88;3.92;;;21.10;54.50;;;;;;5051268;28;20024;-75
2023/05/02 03:01:03;;;;;;;8.05;3.80;;;21.00;54.20;;;;;;5051480;28;20029;-75
2023/05/02 03:03:32;;;;;;;10.18;3.97;;;21.10;54.00;;;;;;5048372;28;20025;-75
2023/05/02 03:05:59;;;;;;;10.55;4.25;;;21.00;54.00;;;;;;5051530;28;20094;-76
2023/05/02 03:08:25;;;;;;;10.40;3.83;;;21.00;54.20;;;;;;5034732;28;20125;-75
2023/05/02 03:10:51;;;;;;;8.95;3.90;;;21.00;53.60;;;;;;5051182;28;20500;-75
2023/05/02 03:13:17;;;;;;;9.85;4.03;;;21.00;54.20;;;;;;5034549;28;20478;-75
2023/05/02 03:15:52;;;;;;;12.40;3.90;;;21.00;54.60;;;;;;5051183;28;20083;-76
2023/05/02 03:18:25;;;;;;;19.65;3.88;;;21.00;54.60;;;;;;5050439;28;20041;-76
2023/05/02 03:20:52;;;;;;;10.95;4.07;;;21.00;54.40;;;;;;5034784;28;20078;-75
2023/05/02 03:23:18;;;;;;;22.55;4.10;;;21.10;54.40;;;;;;5052347;28;20513;-76
2023/05/02 03:25:44;;;;;;;7.93;3.67;;;21.00;54.50;;;;;;5050727;28;20040;-76
2023/05/02 03:28:13;;;;;;;20.02;4.60;;;21.00;54.40;;;;;;5050466;28;20036;-76
2023/05/02 03:30:41;;;;;;;7.13;3.55;;;21.10;54.00;;;;;;5034641;28;20049;-76
2023/05/02 03:33:07;;;;;;;13.52;3.80;;;21.10;54.40;;;;;;5050975;28;20042;-76
2023/05/02 03:35:35;;;;;;;10.88;3.67;;;21.00;54.30;;;;;;5034331;28;20494;-76
2023/05/02 03:38:01;;;;;;;9.23;4.00;;;21.10;54.30;;;;;;5050077;28;20100;-76
2023/05/02 03:40:27;;;;;;;11.77;4.13;;;21.10;54.20;;;;;;5034395;28;20120;-76
2023/05/02 03:42:55;;;;;;;11.27;3.83;;;21.00;54.20;;;;;;5034550;28;20556;-76
2023/05/02 03:45:27;;;;;;;7.07;3.55;;;21.00;54.20;;;;;;5034194;28;20028;-76
2023/05/02 03:47:52;;;;;;;11.55;4.10;;;21.00;54.20;;;;;;5033608;28;20082;-76
2023/05/02 03:50:18;;;;;;;10.10;3.80;;;21.00;54.20;;;;;;5050764;28;20128;-75
2023/05/02 03:52:47;;;;;;;9.55;3.72;;;21.00;54.40;;;;;;5034451;28;20143;-76
2023/05/02 03:55:13;;;;;;;7.50;3.65;;;21.00;54.40;;;;;;5034101;28;20112;-76
2023/05/02 03:57:39;;;;;;;7.93;3.72;;;21.10;54.40;;;;;;5045797;28;20040;-75
2023/05/02 04:00:06;;;;;;;11.15;3.90;;;21.00;54.50;;;;;;5050569;28;20400;-76
2023/05/02 04:02:37;;;;;;;9.38;3.92;;;21.10;54.50;;;;;;5050294;28;20401;-76
2023/05/02 04:05:04;;;;;;;7.03;3.80;;;21.10;54.50;;;;;;5050085;28;20111;-76
2023/05/02 04:07:31;;;;;;;12.55;4.32;;;21.10;54.50;;;;;;5033393;28;20033;-75
2023/05/02 04:10:00;;;;;;;8.82;3.78;;;21.00;54.40;;;;;;5033804;28;20033;-76
2023/05/02 04:12:27;;;;;;;9.68;4.25;;;21.10;54.40;;;;;;5017854;28;20025;-76
2023/05/02 04:14:54;;;;;;;8.75;4.00;;;21.10;54.40;;;;;;5049867;28;20087;-76
2023/05/02 04:17:24;;;;;;;7.90;3.78;;;21.10;54.40;;;;;;5049912;28;20087;-76
2023/05/02 04:19:51;;;;;;;9.23;3.60;;;21.10;54.40;;;;;;5050077;28;20419;-76
2023/05/02 04:22:18;;;;;;;8.57;3.97;;;21.10;54.40;;;;;;5046827;22;20024;-72
2023/05/02 04:24:49;;;;;;;11.27;4.15;;;21.10;54.40;;;;;;4989543;28;20044;-72
2023/05/02 04:27:15;;;;;;;10.43;4.50;;;21.10;54.40;;;;;;4994946;28;20584;-72
2023/05/02 04:29:41;;;;;;;8.50;4.00;;;21.10;54.40;;;;;;4995027;28;20113;-72
2023/05/02 04:32:10;;;;;;;10.35;4.22;;;21.10;54.40;;;;;;4997582;28;20025;-72
2023/05/02 04:34:36;;;;;;;10.10;4.10;;;21.10;54.50;;;;;;5014422;28;20064;-72
2023/05/02 04:37:02;;;;;;;10.05;4.07;;;21.10;54.50;;;;;;5014554;28;20041;-73
2023/05/02 04:39:30;;;;;;;7.22;3.53;;;21.10;54.50;;;;;;4998105;28;20251;-73
2023/05/02 04:42:00;;;;;;;8.18;3.60;;;21.10;54.50;;;;;;5031606;28;20567;-73
2023/05/02 04:44:28;;;;;;;5.03;3.30;;;21.10;54.60;;;;;;5032082;28;20551;-73
2023/05/02 04:46:56;;;;;;;6.38;3.83;;;21.10;54.60;;;;;;5016324;28;20026;-72
2023/05/02 04:49:21;;;;;;;5.80;3.70;;;21.10;54.70;;;;;;5022623;28;20040;-72
2023/05/02 04:51:47;;;;;;;7.78;3.80;;;21.10;54.70;;;;;;5002256;28;20048;-73
2023/05/02 04:54:14;;;;;;;7.32;3.72;;;21.10;54.80;;;;;;5014121;28;20479;-72
2023/05/02 04:56:41;;;;;;;9.07;3.65;;;21.10;55.50;;;;;;5025358;28;20553;-72
2023/05/02 04:59:07;;;;;;;7.05;3.72;;;21.10;55.00;;;;;;5023415;28;20036;-72
2023/05/02 05:01:35;;;;;;;7.28;3.60;;;21.10;55.00;;;;;;5035653;28;20032;-72
2023/05/02 05:04:02;;;;;;;9.45;3.70;;;21.10;55.00;;;;;;5022667;28;20578;-72
2023/05/02 05:06:28;;;;;;;9.00;3.65;;;21.10;55.00;;;;;;5004430;28;20045;-73
2023/05/02 05:08:55;;;;;;;6.88;3.60;;;21.10;55.00;;;;;;4990875;28;20033;-72
2023/05/02 05:11:22;;;;;;;8.10;3.58;;;21.10;54.90;;;;;;5013932;28;20043;-72
2023/05/02 05:13:49;;;;;;;13.02;4.78;;;21.10;54.90;;;;;;4997648;28;20029;-73
2023/05/02 05:16:15;;;;;;;7.25;3.70;;;21.10;55.00;;;;;;5019994;28;20047;-73
2023/05/02 05:18:42;;;;;;;7.07;3.45;;;21.10;55.00;;;;;;5002559;28;20056;-73
2023/05/02 05:21:11;;;;;;;4.85;3.05;;;21.10;55.10;;;;;;5022213;28;20029;-73
2023/05/02 05:23:37;;;;;;;6.55;3.55;;;21.10;55.10;;;;;;5013276;28;20041;-73
2023/05/02 05:26:12;;;;;;;9.82;3.95;;;21.10;55.10;;;;;;4981526;28;20041;-73
2023/05/02 05:28:40;;;;;;;7.82;3.53;;;21.10;55.00;;;;;;5025601;28;20030;-72
2023/05/02 05:31:07;;;;;;;7.53;3.55;;;21.20;55.20;;;;;;5017860;28;20056;-72
2023/05/02 05:33:34;;;;;;;8.40;3.40;;;21.10;55.10;;;;;;5001545;28;20040;-73
2023/05/02 05:36:13;;;;;;;8.10;3.78;;;21.10;55.00;;;;;;5047815;28;20024;-73
2023/05/02 05:38:39;;;;;;;6.35;3.40;;;21.10;55.00;;;;;;5028668;28;20033;-73
2023/05/02 05:41:07;;;;;;;7.15;3.42;;;21.20;55.00;;;;;;5013532;28;20034;-73
2023/05/02 05:43:35;;;;;;;11.02;3.80;;;21.10;55.00;;;;;;5013224;28;20113;-73
2023/05/02 05:46:01;;;;;;;8.70;3.70;;;21.10;55.00;;;;;;5030645;28;20031;-73
2023/05/02 05:48:30;;;;;;;16.17;3.80;;;21.10;54.90;;;;;;5020047;28;20041;-73
2023/05/02 05:51:01;;;;;;;8.75;3.53;;;21.10;55.00;;;;;;4996989;28;20029;-72
2023/05/02 05:53:27;;;;;;;8.13;3.80;;;21.10;55.10;;;;;;5013002;28;20111;-72
2023/05/02 05:55:55;;;;;;;6.35;3.33;;;21.20;55.10;;;;;;4996868;28;20037;-72
2023/05/02 05:58:21;;;;;;;5.85;3.50;;;21.10;55.00;;;;;;5028215;28;20127;-73
2023/05/02 06:00:49;;;;;;;11.68;3.70;;;21.20;55.10;;;;;;5014498;28;20116;-72
2023/05/02 06:03:18;;;;;;;8.98;3.65;;;21.20;55.00;;;;;;5030248;28;20040;-72
2023/05/02 06:05:44;;;;;;;15.80;4.25;;;21.20;55.10;;;;;;5030679;28;20029;-72
2023/05/02 06:08:11;;;;;;;7.80;3.72;;;21.20;55.10;;;;;;5018981;28;20114;-72
2023/05/02 06:10:36;;;;;;;8.30;3.40;;;21.20;55.10;;;;;;5013072;28;20502;-72
2023/05/02 06:13:03;;;;;;;7.13;3.65;;;21.20;55.00;;;;;;5012869;28;20036;-73
2023/05/02 06:15:34;;;;;;;;;;;21.20;55.10;;;;;;5023777;28;20482;-73
2023/05/02 06:18:00;;;;;;;6.47;3.03;;;21.20;55.00;;;;;;5030444;28;19916;-73
2023/05/02 06:20:26;;;;;;;9.35;3.58;;;21.20;55.10;;;;;;5010372;28;20028;-73
2023/05/02 06:22:52;;;;;;;9.45;3.22;;;21.20;55.00;;;;;;5001117;28;20108;-73
2023/05/02 06:25:17;;;;;;;7.18;3.60;;;21.20;55.00;;;;;;5034229;28;20029;-73
2023/05/02 06:27:43;;;;;;;5.85;2.80;;;21.20;55.00;;;;;;5020302;28;20560;-73
2023/05/02 06:30:09;;;;;;;6.07;3.30;;;21.20;55.00;;;;;;5014344;28;20039;-74
2023/05/02 06:32:35;;;;;;;5.85;3.00;;;21.20;55.00;;;;;;5051336;28;20025;-74
2023/05/02 06:35:01;;;;;;;6.22;3.20;;;21.20;55.00;;;;;;5017027;28;20360;-74
2023/05/02 06:37:31;;;;;;;8.07;3.58;;;21.20;55.00;;;;;;5022666;28;20029;-74
2023/05/02 06:39:56;;;;;;;;;;;21.20;55.00;;;;;;5044327;28;20028;-74
2023/05/02 06:42:22;;;;;;;6.65;3.30;;;21.20;55.10;;;;;;5042970;28;19918;-74
2023/05/02 06:44:50;;;;;;;7.28;3.50;;;21.20;55.10;;;;;;5052308;28;20621;-74
2023/05/02 06:47:16;;;;;;;5.97;3.50;;;21.20;55.20;;;;;;5017237;28;20042;-73
2023/05/02 06:49:41;;;;;;;9.05;3.42;;;21.20;55.20;;;;;;5044462;28;20026;-73
2023/05/02 06:52:07;;;;;;;7.85;3.53;;;21.20;55.20;;;;;;5033694;28;20025;-74
2023/05/02 06:54:33;;;;;;;7.70;3.83;;;21.30;55.30;;;;;;5051729;28;20079;-74
2023/05/02 06:56:59;;;;;;;6.63;3.10;;;21.20;55.40;;;;;;5034051;28;20041;-74
2023/05/02 06:59:25;;;;;;;6.10;3.47;;;21.20;55.40;;;;;;5051478;28;20120;-74
2023/05/02 07:01:51;;;;;;;7.40;3.60;;;21.20;55.40;;;;;;5051952;28;20104;-73
2023/05/02 07:04:17;;;;;;;15.25;3.40;;;21.20;55.40;;;;;;5033067;28;20103;-74
2023/05/02 07:06:42;;;;;;;6.93;3.47;;;21.30;55.50;;;;;;5033516;28;20037;-74
2023/05/02 07:09:08;;;;;;;17.17;3.80;;;21.20;55.50;;;;;;5030497;28;20030;-73
2023/05/02 07:11:35;;;;;;;6.95;3.55;;;21.30;55.30;;;;;;5036627;28;20022;-73
2023/05/02 07:14:00;;;;;;;7.97;3.80;;;21.30;55.30;;;;;;5025416;28;20433;-74
2023/05/02 07:16:27;;;;;;;12.77;3.63;;;21.30;55.30;;;;;;5029984;28;20080;-74
2023/05/02 07:18:52;;;;;;;11.85;3.40;;;21.30;55.30;;;;;;5034151;28;20421;-73
2023/05/02 07:21:18;;;;;;;15.48;4.20;;;21.30;55.30;;;;;;4996489;28;20045;-75
2023/05/02 07:23:44;;;;;;;9.68;3.08;;;21.30;55.20;;;;;;5045540;28;20543;-74
2023/05/02 07:26:10;;;;;;;9.38;3.42;;;21.30;55.10;;;;;;5035945;28;20030;-73
2023/05/02 07:28:36;;;;;;;8.27;3.55;;;21.30;55.10;;;;;;5031214;28;20450;-74
2023/05/02 07:31:02;;;;;;;13.60;3.75;;;21.30;55.10;;;;;;5031572;28;20034;-74
2023/05/02 07:33:28;;;;;;;9.20;4.22;;;21.30;55.10;;;;;;5031611;28;20025;-74
2023/05/02 07:35:55;;;;;;;9.88;3.25;;;21.30;55.70;;;;;;5013516;28;20034;-74
2023/05/02 07:38:21;;;;;;;7.47;3.60;;;21.30;55.00;;;;;;5044032;28;20025;-74
2023/05/02 07:40:46;;;;;;;10.00;3.60;;;21.30;55.00;;;;;;5048747;28;20043;-74
2023/05/02 07:43:14;;;;;;;10.77;3.50;;;21.40;55.10;;;;;;5024168;28;20071;-74
2023/05/02 07:45:40;;;;;;;8.13;3.60;;;21.30;55.00;;;;;;5030898;28;20029;-74
2023/05/02 07:48:06;;;;;;;7.93;3.40;;;21.40;55.00;;;;;;5017953;28;20031;-74
2023/05/02 07:50:32;;;;;;;8.52;3.45;;;21.30;54.90;;;;;;5048653;28;20036;-73
2023/05/02 07:52:57;;;;;;;6.88;3.28;;;21.40;55.10;;;;;;5039987;28;20094;-73
2023/05/02 07:55:25;;;;;;;7.82;3.90;;;21.30;55.00;;;;;;5048758;28;20055;-75
2023/05/02 07:57:51;;;;;;;9.52;3.58;;;21.30;55.00;;;;;;5047834;28;20059;-73
2023/05/02 08:00:17;;;;;;;6.35;3.35;;;21.30;55.00;;;;;;5029575;28;20398;-73
2023/05/02 08:02:45;;;;;;;9.70;3.33;;;21.30;55.10;;;;;;5013000;28;20044;-72
2023/05/02 08:05:10;;;;;;;8.30;3.58;;;21.40;55.20;;;;;;5046985;28;20033;-73
2023/05/02 08:07:36;;;;;;;9.70;3.35;;;21.30;55.10;;;;;;5021580;28;20384;-74
2023/05/02 08:10:02;;;;;;;6.35;3.35;;;21.30;55.10;;;;;;5013037;28;20021;-73
2023/05/02 08:12:28;;;;;;;6.00;2.90;;;21.30;55.20;;;;;;5044930;28;20025;-73
2023/05/02 08:14:54;;;;;;;12.32;3.60;;;21.40;55.30;;;;;;5047977;28;20033;-75
2023/05/02 08:17:20;;;;;;;10.75;3.38;;;21.30;55.20;;;;;;5043713;28;20052;-74
2023/05/02 08:19:46;;;;;;;8.80;3.30;;;21.40;55.20;;;;;;5039197;28;20029;-73
2023/05/02 08:22:12;;;;;;;9.10;3.42;;;21.40;55.40;;;;;;5048152;28;20496;-75
2023/05/02 08:24:37;;;;;;;14.93;3.17;;;21.40;55.30;;;;;;5048101;28;20044;-73
2023/05/02 08:27:03;;;;;;;7.63;3.45;;;21.30;55.20;;;;;;5030486;28;20438;-74
2023/05/02 08:29:30;;;;;;;6.75;2.90;;;21.40;55.20;;;;;;5025576;28;20037;-74
2023/05/02 08:31:56;;;;;;;7.82;3.47;;;21.40;55.20;;;;;;5030054;28;20029;-73
2023/05/02 08:34:22;;;;;;;7.15;3.20;;;21.40;55.30;;;;;;5030328;28;20031;-73
2023/05/02 08:36:47;;;;;;;7.95;3.10;;;21.40;55.20;;;;;;5030012;28;20116;-73
2023/05/02 08:39:13;;;;;;;6.30;3.20;;;21.40;55.30;;;;;;5029954;28;20419;-73
2023/05/02 08:41:39;;;;;;;9.48;3.58;;;21.40;55.40;;;;;;5038448;28;20498;-73
2023/05/02 08:44:06;;;;;;;6.50;3.38;;;21.40;55.30;;;;;;5047587;28;20973;-73
2023/05/02 08:46:35;;;;;;;7.32;3.33;;;21.40;55.30;;;;;;5038917;28;20037;-72
2023/05/02 08:49:02;;;;;;;5.97;3.03;;;21.30;55.20;;;;;;5029919;28;20025;-73
2023/05/02 08:51:29;;;;;;;9.38;2.75;;;21.40;55.30;;;;;;5029100;28;20761;-73
2023/05/02 08:53:56;;;;;;;8.55;3.22;;;21.40;55.30;;;;;;5012080;28;20025;-73
2023/05/02 08:56:21;;;;;;;5.10;3.03;;;21.40;55.10;;;;;;5022333;28;20033;-72
2023/05/02 08:58:47;;;;;;;6.57;3.35;;;21.40;55.20;;;;;;5035353;28;20087;-73
2023/05/02 09:01:18;;;;;;;7.45;3.20;;;21.40;55.20;;;;;;5012032;28;20043;-73
2023/05/02 09:03:45;;;;;;;7.50;3.28;;;21.30;55.10;;;;;;5011799;28;20434;-72
2023/05/02 09:06:19;;;;;;;10.25;3.38;;;21.30;55.10;;;;;;5029473;28;20061;-72
2023/05/02 09:08:51;;;;;;;6.55;2.90;;;21.30;55.10;;;;;;5029122;28;20037;-72
2023/05/02 09:11:17;;;;;;;13.73;3.35;;;21.40;55.10;;;;;;5029626;28;20510;-73
2023/05/02 09:13:45;;;;;;;5.78;2.70;;;21.30;55.10;;;;;;5029263;28;20018;-72
2023/05/02 09:16:21;;;;;;;5.70;2.70;;;21.30;55.10;;;;;;5028558;28;20067;-72
2023/05/02 09:18:52;;;;;;;10.07;3.05;;;21.30;55.10;;;;;;5029545;28;20433;-72
2023/05/02 09:21:21;;;;;;;4.68;3.08;;;21.30;55.00;;;;;;5029568;28;20107;-72
2023/05/02 09:23:49;;;;;;;7.53;3.17;;;21.40;55.10;;;;;;5042808;28;20033;-71
2023/05/02 09:26:22;;;;;;;9.77;3.05;;;21.40;55.10;;;;;;5046702;28;20062;-72
2023/05/02 09:28:50;;;;;;;9.23;2.88;;;21.30;55.00;;;;;;5029019;28;20033;-73
2023/05/02 09:31:21;;;;;;;7.35;2.72;;;21.30;55.00;;;;;;5028135;28;20394;-73
2023/05/02 09:33:48;;;;;;;9.88;2.90;;;21.30;55.00;;;;;;5011657;28;20524;-73
2023/05/02 09:36:16;;;;;;;6.72;2.60;;;21.40;55.10;;;;;;5029169;28;20044;-73
2023/05/02 09:38:43;;;;;;;8.07;2.95;;;21.40;55.00;;;;;;5019608;28;20079;-73
2023/05/02 09:41:10;;;;;;;16.85;2.58;;;21.40;55.10;;;;;;5028112;28;20033;-73
2023/05/02 09:43:36;;;;;;;6.38;2.63;;;21.40;55.10;;;;;;4979028;28;20041;-72
2023/05/02 09:46:07;;;;;;;11.82;3.13;;;21.40;55.00;;;;;;5023506;28;20083;-73
2023/05/02 09:48:53;;;;;;;8.80;2.92;;;21.40;55.50;;;;;;5024554;28;20040;-72
2023/05/02 09:51:20;;;;;;;13.00;3.17;;;21.40;55.20;;;;;;5039891;28;20041;-72
2023/05/02 09:53:46;;;;;;;27.95;4.03;;;21.40;57.60;;;;;;5046554;28;20021;-72
2023/05/02 09:56:12;;;;;;;15.27;3.88;;;21.40;60.10;;;;;;5029255;28;20029;-72
2023/05/02 09:58:38;;;;;;;18.55;3.83;;;21.50;64.00;;;;;;5028717;28;20044;-73
2023/05/02 10:01:04;;;;;;;19.92;4.00;;;21.50;61.60;;;;;;5011255;28;20033;-73
2023/05/02 10:03:31;;;;;;;8.23;2.90;;;21.50;62.40;;;;;;4994976;28;20033;-72
2023/05/02 10:05:57;;;;;;;6.25;3.03;;;21.50;59.10;;;;;;5028125;28;20022;-72
2023/05/02 10:08:27;;;;;;;8.48;2.70;;;21.50;58.30;;;;;;5011149;28;20414;-74
2023/05/02 10:10:55;;;;;;;10.05;3.40;;;21.40;56.80;;;;;;5037398;28;20025;-72
2023/05/02 10:13:25;;;;;;;8.43;2.85;;;21.50;56.60;;;;;;5028720;28;20022;-73
2023/05/02 10:16:05;;;;;;;10.38;3.20;;;21.50;56.60;;;;;;5011409;28;20409;-72
2023/05/02 10:18:57;;;;;;;6.45;3.00;;;21.50;56.60;;;;;;5028300;28;20099;-71
2023/05/02 10:21:26;;;;;;;7.43;3.15;;;21.50;56.60;;;;;;5046277;28;20486;-72
2023/05/02 10:23:53;;;;;;;9.85;3.00;;;21.50;57.00;;;;;;5048898;23;20041;-76
2023/05/02 10:26:22;;;;;;;8.35;2.90;;;21.50;57.20;;;;;;5036752;28;20147;-76
2023/05/02 10:28:49;;;;;;;7.00;3.08;;;21.50;56.70;;;;;;5036290;28;20079;-73
2023/05/02 10:31:16;;;;;;;5.45;2.80;;;21.50;56.50;;;;;;5046331;28;20025;-73
2023/05/02 10:33:43;;;;;;;13.27;2.78;;;21.50;56.80;;;;;;5044141;28;20037;-74
2023/05/02 10:36:13;;;;;;;5.90;2.75;;;21.50;57.20;;;;;;5044746;28;20421;-73
2023/05/02 10:38:40;;;;;;;7.03;3.05;;;21.60;58.50;;;;;;5045548;28;20043;-74
2023/05/02 10:41:21;;;;;;;9.57;3.25;;;21.60;58.60;;;;;;5046181;28;20037;-76
2023/05/02 10:43:48;;;;;;;15.43;3.53;;;21.70;58.20;;;;;;5044108;28;20109;-74
2023/05/02 10:46:32;;;;;;;24.45;4.57;;;21.70;58.90;;;;;;5036861;28;20025;-73
2023/05/02 10:49:07;;;;;;;23.33;3.78;;;21.70;59.20;;;;;;5043207;28;20029;-75
2023/05/02 10:51:35;;;;;;;14.15;3.40;;;21.70;58.70;;;;;;5035439;28;20057;-73
2023/05/02 10:54:19;;;;;;;15.52;3.38;;;21.70;58.80;;;;;;5027010;28;20392;-73
2023/05/02 10:57:04;;;;;;;16.75;3.35;;;21.70;60.10;;;;;;5043266;28;20045;-74
2023/05/02 10:59:41;;;;;;;11.90;3.50;;;21.70;60.00;;;;;;5036682;28;20029;-74
2023/05/02 11:02:23;;;;;;;8.40;3.75;;;21.60;59.80;;;;;;5033203;28;20676;-75
2023/05/02 11:05:08;;;;;;;31.15;6.18;;;21.70;59.70;;;;;;5046393;28;20087;-74
2023/05/02 11:07:36;;;;;;;27.20;5.32;;;21.70;60.30;;;;;;5024071;28;20032;-74
2023/05/02 11:10:17;;;;;;;22.42;5.57;;;21.70;59.90;;;;;;5040679;28;20025;-74
2023/05/02 11:12:53;;;;;;;16.10;4.22;;;21.70;59.80;;;;;;5058985;28;20091;-74
2023/05/02 11:15:25;;;;;;;15.35;4.28;;;21.70;59.40;;;;;;5045386;28;20033;-74
2023/05/02 11:18:07;;;;;;;20.45;4.68;;;21.70;59.20;;;;;;5028116;28;20045;-74
2023/05/02 11:20:35;;;;;;;21.75;4.75;;;21.60;59.20;;;;;;5046077;28;20037;-74
2023/05/02 11:23:15;;;;;;;24.65;6.20;;;21.70;59.10;;;;;;5050381;28;20029;-74
2023/05/02 11:25:43;;;;;;;19.42;5.25;;;21.70;58.80;;;;;;5050523;28;20128;-75
2023/05/02 11:28:46;;;;;;;20.83;6.45;;;21.60;58.30;;;;;;5051048;28;20033;-74
2023/05/02 11:31:27;;;;;;;23.52;5.65;;;21.60;58.20;;;;;;5050519;28;20033;-74
2023/05/02 11:33:59;;;;;;;18.65;5.20;;;21.60;58.70;;;;;;5051786;28;20132;-75
2023/05/02 11:36:29;;;;;;;20.23;5.63;;;21.70;58.30;;;;;;5045609;28;20120;-74
2023/05/02 11:38:55;;;;;;;21.75;6.03;;;21.60;58.50;;;;;;5030436;28;20081;-74
2023/05/02 11:41:21;;;;;;;22.33;5.80;;;21.60;58.50;;;;;;5030523;28;20033;-74
2023/05/02 11:43:46;;;;;;;22.55;5.30;;;21.60;57.80;;;;;;5031616;28;20033;-74
2023/05/02 11:46:12;;;;;;;21.50;5.97;;;21.70;58.10;;;;;;5031732;28;20048;-74
2023/05/02 11:48:40;;;;;;;23.40;6.40;;;21.60;58.20;;;;;;5031832;28;20026;-74
2023/05/02 11:51:06;;;;;;;21.98;6.05;;;21.60;57.30;;;;;;5031636;28;20030;-74
2023/05/02 11:53:32;;;;;;;23.25;6.07;;;21.60;57.40;;;;;;5031646;28;20036;-74
2023/05/02 11:56:03;;;;;;;18.80;5.38;;;21.60;58.10;;;;;;5031645;28;20502;-74
2023/05/02 11:58:33;;;;;;;29.15;5.70;;;21.60;57.70;;;;;;5031432;28;20029;-74
2023/05/02 12:01:14;;;;;;;16.83;4.80;;;21.60;57.40;;;;;;5031690;28;20051;-74
2023/05/02 12:03:40;;;;;;;18.80;5.00;;;21.60;57.50;;;;;;5030218;28;20402;-74
2023/05/02 12:06:12;;;;;;;19.45;5.45;;;21.60;57.30;;;;;;5031370;28;20030;-74
2023/05/02 12:08:39;;;;;;;17.67;5.13;;;21.60;57.10;;;;;;5031386;28;20021;-75
2023/05/02 12:11:05;;;;;;;18.50;4.80;;;21.60;57.80;;;;;;5032753;28;20029;-75
2023/05/02 12:13:31;;;;;;;18.20;4.80;;;21.60;58.10;;;;;;5030732;28;20071;-74
2023/05/02 12:15:57;;;;;;;19.77;5.35;;;21.60;58.20;;;;;;5031083;28;20021;-74
2023/05/02 12:18:25;;;;;;;22.45;5.85;;;21.60;57.50;;;;;;5044811;28;20033;-75
2023/05/02 12:20:53;;;;;;;29.05;5.90;;;21.60;57.70;;;;;;5050119;28;20025;-75
2023/05/02 12:23:21;;;;;;;20.25;5.68;;;21.60;57.90;;;;;;5050457;28;20063;-74
2023/05/02 12:25:48;;;;;;;20.15;5.63;;;21.70;58.10;;;;;;5050786;28;20021;-74
2023/05/02 12:28:15;;;;;;;21.35;5.80;;;21.70;58.10;;;;;;5050340;28;20025;-74
2023/05/02 12:30:41;;;;;;;22.08;5.30;;;21.70;58.00;;;;;;5062936;28;20047;-74
2023/05/02 12:33:07;;;;;;;33.78;6.28;;;21.70;57.90;;;;;;5069404;28;20040;-75
2023/05/02 12:35:34;;;;;;;23.95;5.93;;;21.80;57.90;;;;;;5069170;28;20021;-74
2023/05/02 12:38:21;;;;;;;19.27;6.47;;;21.80;57.80;;;;;;5069463;28;20539;-75
2023/05/02 12:40:52;;;;;;;19.42;6.13;;;21.80;57.80;;;;;;5069260;28;20546;-75
2023/05/02 12:43:20;;;;;;;22.08;5.88;;;21.80;57.70;;;;;;5060167;28;20025;-75
2023/05/02 12:45:47;;;;;;;18.67;5.60;;;21.80;57.70;;;;;;5047612;28;20036;-74
2023/05/02 12:48:26;;;;;;;21.35;6.07;;;21.80;57.70;;;;;;5048688;28;20513;-74
2023/05/02 12:50:53;;;;;;;20.08;5.20;;;21.80;57.80;;;;;;5047679;28;20044;-74
2023/05/02 12:53:42;;;;;;;20.70;6.22;;;21.80;57.80;;;;;;5050004;28;20056;-74